sensor_id;sensor_type;location;lat;lon;timestamp;temperature;humidity
14555;DHT22;7364;50.870;4.722;2023-10-08T00:02:10;18.30;94.50
14555;DHT22;7364;50.870;4.722;2023-10-08T00:04:40;18.20;94.80
14555;DHT22;7364;50.870;4.722;2023-10-08T00:07:10;18.30;94.80
14555;DHT22;7364;50.870;4.722;2023-10-08T00:09:37;18.40;94.70
14555;DHT22;7364;50.870;4.722;2023-10-08T00:12:05;18.50;94.50
14555;DHT22;7364;50.870;4.722;2023-10-08T00:14:32;18.30;94.40
14555;DHT22;7364;50.870;4.722;2023-10-08T00:17:11;18.30;94.70
14555;DHT22;7364;50.870;4.722;2023-10-08T00:19:38;18.30;94.70
14555;DHT22;7364;50.870;4.722;2023-10-08T00:22:09;18.30;94.70
14555;DHT22;7364;50.870;4.722;2023-10-08T00:24:40;18.30;94.80
14555;DHT22;7364;50.870;4.722;2023-10-08T00:27:08;18.30;94.80
14555;DHT22;7364;50.870;4.722;2023-10-08T00:29:36;18.20;94.80
14555;DHT22;7364;50.870;4.722;2023-10-08T00:32:06;18.00;95.20
14555;DHT22;7364;50.870;4.722;2023-10-08T00:34:44;18.00;95.10
14555;DHT22;7364;50.870;4.722;2023-10-08T00:37:12;18.20;95.10
14555;DHT22;7364;50.870;4.722;2023-10-08T00:39:41;18.30;95.00
14555;DHT22;7364;50.870;4.722;2023-10-08T00:42:09;18.10;94.90
14555;DHT22;7364;50.870;4.722;2023-10-08T00:44:41;18.10;95.00
14555;DHT22;7364;50.870;4.722;2023-10-08T00:47:17;18.10;95.00
14555;DHT22;7364;50.870;4.722;2023-10-08T00:49:48;18.00;95.10
14555;DHT22;7364;50.870;4.722;2023-10-08T00:52:29;17.90;95.70
14555;DHT22;7364;50.870;4.722;2023-10-08T00:55:05;17.80;95.60
14555;DHT22;7364;50.870;4.722;2023-10-08T00:57:48;17.90;95.70
14555;DHT22;7364;50.870;4.722;2023-10-08T01:00:19;17.90;95.70
14555;DHT22;7364;50.870;4.722;2023-10-08T01:02:49;18.00;95.60
14555;DHT22;7364;50.870;4.722;2023-10-08T01:05:27;18.10;95.60
14555;DHT22;7364;50.870;4.722;2023-10-08T01:08:13;18.10;95.50
14555;DHT22;7364;50.870;4.722;2023-10-08T01:10:48;17.80;95.90
14555;DHT22;7364;50.870;4.722;2023-10-08T01:13:26;17.80;96.00
14555;DHT22;7364;50.870;4.722;2023-10-08T01:16:01;17.80;96.10
14555;DHT22;7364;50.870;4.722;2023-10-08T01:18:29;17.60;96.50
14555;DHT22;7364;50.870;4.722;2023-10-08T01:21:02;17.50;96.60
14555;DHT22;7364;50.870;4.722;2023-10-08T01:23:35;17.40;96.80
14555;DHT22;7364;50.870;4.722;2023-10-08T01:26:04;17.40;96.80
14555;DHT22;7364;50.870;4.722;2023-10-08T01:28:37;17.50;96.90
14555;DHT22;7364;50.870;4.722;2023-10-08T01:31:05;17.60;96.80
14555;DHT22;7364;50.870;4.722;2023-10-08T01:33:33;17.70;96.70
14555;DHT22;7364;50.870;4.722;2023-10-08T01:36:04;17.80;96.50
14555;DHT22;7364;50.870;4.722;2023-10-08T01:38:40;17.80;96.60
14555;DHT22;7364;50.870;4.722;2023-10-08T01:41:08;17.80;96.60
14555;DHT22;7364;50.870;4.722;2023-10-08T01:43:44;17.70;97.00
14555;DHT22;7364;50.870;4.722;2023-10-08T01:46:12;17.80;96.70
14555;DHT22;7364;50.870;4.722;2023-10-08T01:48:41;17.80;96.60
14555;DHT22;7364;50.870;4.722;2023-10-08T01:51:10;17.80;96.70
14555;DHT22;7364;50.870;4.722;2023-10-08T01:53:47;17.80;96.60
14555;DHT22;7364;50.870;4.722;2023-10-08T01:56:14;17.70;96.80
14555;DHT22;7364;50.870;4.722;2023-10-08T01:58:43;17.70;97.00
14555;DHT22;7364;50.870;4.722;2023-10-08T02:01:12;17.70;97.00
14555;DHT22;7364;50.870;4.722;2023-10-08T02:03:39;17.70;97.10
14555;DHT22;7364;50.870;4.722;2023-10-08T02:06:07;17.60;97.30
14555;DHT22;7364;50.870;4.722;2023-10-08T02:08:34;17.60;97.40
14555;DHT22;7364;50.870;4.722;2023-10-08T02:11:04;17.60;97.30
14555;DHT22;7364;50.870;4.722;2023-10-08T02:13:31;17.40;97.50
14555;DHT22;7364;50.870;4.722;2023-10-08T02:16:00;17.40;97.80
14555;DHT22;7364;50.870;4.722;2023-10-08T02:18:27;17.30;97.90
14555;DHT22;7364;50.870;4.722;2023-10-08T02:20:57;17.30;98.00
14555;DHT22;7364;50.870;4.722;2023-10-08T02:23:24;17.50;97.80
14555;DHT22;7364;50.870;4.722;2023-10-08T02:25:53;17.50;97.80
14555;DHT22;7364;50.870;4.722;2023-10-08T02:28:22;17.50;97.80
14555;DHT22;7364;50.870;4.722;2023-10-08T02:30:51;17.50;97.90
14555;DHT22;7364;50.870;4.722;2023-10-08T02:33:18;17.50;97.90
14555;DHT22;7364;50.870;4.722;2023-10-08T02:35:46;17.40;98.00
14555;DHT22;7364;50.870;4.722;2023-10-08T02:38:17;17.30;98.30
14555;DHT22;7364;50.870;4.722;2023-10-08T02:40:47;17.10;98.70
14555;DHT22;7364;50.870;4.722;2023-10-08T02:43:21;17.00;99.00
14555;DHT22;7364;50.870;4.722;2023-10-08T02:45:49;17.00;99.30
14555;DHT22;7364;50.870;4.722;2023-10-08T02:48:16;17.00;99.40
14555;DHT22;7364;50.870;4.722;2023-10-08T02:50:44;17.10;99.40
14555;DHT22;7364;50.870;4.722;2023-10-08T02:53:12;17.20;99.30
14555;DHT22;7364;50.870;4.722;2023-10-08T02:55:43;17.20;99.30
14555;DHT22;7364;50.870;4.722;2023-10-08T02:58:12;17.30;99.30
14555;DHT22;7364;50.870;4.722;2023-10-08T03:00:45;17.30;99.20
14555;DHT22;7364;50.870;4.722;2023-10-08T03:03:13;17.30;99.30
14555;DHT22;7364;50.870;4.722;2023-10-08T03:05:44;17.40;99.30
14555;DHT22;7364;50.870;4.722;2023-10-08T03:08:12;17.50;99.20
14555;DHT22;7364;50.870;4.722;2023-10-08T03:10:45;17.50;99.30
14555;DHT22;7364;50.870;4.722;2023-10-08T03:13:14;17.60;99.20
14555;DHT22;7364;50.870;4.722;2023-10-08T03:15:46;17.70;99.10
14555;DHT22;7364;50.870;4.722;2023-10-08T03:18:33;17.70;99.20
14555;DHT22;7364;50.870;4.722;2023-10-08T03:21:03;17.80;99.10
14555;DHT22;7364;50.870;4.722;2023-10-08T03:23:31;17.70;99.10
14555;DHT22;7364;50.870;4.722;2023-10-08T03:26:01;17.70;99.20
14555;DHT22;7364;50.870;4.722;2023-10-08T03:28:36;17.50;99.30
14555;DHT22;7364;50.870;4.722;2023-10-08T03:31:08;17.50;99.60
14555;DHT22;7364;50.870;4.722;2023-10-08T03:33:42;17.30;99.80
14555;DHT22;7364;50.870;4.722;2023-10-08T03:36:15;17.10;99.90
14555;DHT22;7364;50.870;4.722;2023-10-08T03:38:47;17.00;99.90
14555;DHT22;7364;50.870;4.722;2023-10-08T03:41:21;17.10;99.90
14555;DHT22;7364;50.870;4.722;2023-10-08T03:43:54;17.10;99.90
14555;DHT22;7364;50.870;4.722;2023-10-08T03:46:29;17.10;99.90
14555;DHT22;7364;50.870;4.722;2023-10-08T03:48:59;17.20;99.90
14555;DHT22;7364;50.870;4.722;2023-10-08T03:51:31;17.20;99.90
14555;DHT22;7364;50.870;4.722;2023-10-08T03:54:05;17.30;99.90
14555;DHT22;7364;50.870;4.722;2023-10-08T03:56:46;17.50;99.90
14555;DHT22;7364;50.870;4.722;2023-10-08T03:59:14;17.60;99.90
14555;DHT22;7364;50.870;4.722;2023-10-08T04:01:47;17.70;99.90
14555;DHT22;7364;50.870;4.722;2023-10-08T04:04:22;17.70;99.90
14555;DHT22;7364;50.870;4.722;2023-10-08T04:06:57;17.80;99.90
14555;DHT22;7364;50.870;4.722;2023-10-08T04:09:49;17.70;99.90
14555;DHT22;7364;50.870;4.722;2023-10-08T04:12:22;17.70;99.90
14555;DHT22;7364;50.870;4.722;2023-10-08T04:14:53;17.60;99.90
14555;DHT22;7364;50.870;4.722;2023-10-08T04:17:23;17.60;99.90
14555;DHT22;7364;50.870;4.722;2023-10-08T04:19:50;17.50;99.90
14555;DHT22;7364;50.870;4.722;2023-10-08T04:22:18;17.50;99.90
14555;DHT22;7364;50.870;4.722;2023-10-08T04:24:45;17.60;99.90
14555;DHT22;7364;50.870;4.722;2023-10-08T04:27:13;17.60;99.90
14555;DHT22;7364;50.870;4.722;2023-10-08T04:29:41;17.60;99.90
14555;DHT22;7364;50.870;4.722;2023-10-08T04:32:08;17.60;99.90
14555;DHT22;7364;50.870;4.722;2023-10-08T04:34:40;17.50;99.90
14555;DHT22;7364;50.870;4.722;2023-10-08T04:37:12;17.30;99.90
14555;DHT22;7364;50.870;4.722;2023-10-08T04:39:45;17.30;99.90
14555;DHT22;7364;50.870;4.722;2023-10-08T04:42:20;17.30;99.90
14555;DHT22;7364;50.870;4.722;2023-10-08T04:44:52;17.30;99.90
14555;DHT22;7364;50.870;4.722;2023-10-08T04:47:20;17.30;99.90
14555;DHT22;7364;50.870;4.722;2023-10-08T04:50:00;17.20;99.90
14555;DHT22;7364;50.870;4.722;2023-10-08T04:52:30;17.10;99.90
14555;DHT22;7364;50.870;4.722;2023-10-08T04:55:00;17.10;99.90
14555;DHT22;7364;50.870;4.722;2023-10-08T04:57:38;17.10;99.90
14555;DHT22;7364;50.870;4.722;2023-10-08T05:00:09;17.10;99.90
14555;DHT22;7364;50.870;4.722;2023-10-08T05:02:41;17.10;99.90
14555;DHT22;7364;50.870;4.722;2023-10-08T05:05:16;17.10;99.90
14555;DHT22;7364;50.870;4.722;2023-10-08T05:07:50;17.10;99.90
14555;DHT22;7364;50.870;4.722;2023-10-08T05:10:35;17.00;99.90
14555;DHT22;7364;50.870;4.722;2023-10-08T05:13:19;16.90;99.90
14555;DHT22;7364;50.870;4.722;2023-10-08T05:15:56;16.90;99.90
14555;DHT22;7364;50.870;4.722;2023-10-08T05:18:37;16.90;99.90
14555;DHT22;7364;50.870;4.722;2023-10-08T05:21:23;16.80;99.90
14555;DHT22;7364;50.870;4.722;2023-10-08T05:24:07;16.80;99.90
14555;DHT22;7364;50.870;4.722;2023-10-08T05:26:39;16.80;99.90
14555;DHT22;7364;50.870;4.722;2023-10-08T05:29:15;16.80;99.90
14555;DHT22;7364;50.870;4.722;2023-10-08T05:31:59;16.80;99.90
14555;DHT22;7364;50.870;4.722;2023-10-08T05:34:40;16.80;99.90
14555;DHT22;7364;50.870;4.722;2023-10-08T05:37:18;16.80;99.90
14555;DHT22;7364;50.870;4.722;2023-10-08T05:40:08;16.70;99.90
14555;DHT22;7364;50.870;4.722;2023-10-08T05:42:47;16.70;99.90
14555;DHT22;7364;50.870;4.722;2023-10-08T05:45:16;16.80;99.90
14555;DHT22;7364;50.870;4.722;2023-10-08T05:47:56;16.80;99.90
14555;DHT22;7364;50.870;4.722;2023-10-08T05:50:40;16.70;99.90
14555;DHT22;7364;50.870;4.722;2023-10-08T05:53:23;16.60;99.90
14555;DHT22;7364;50.870;4.722;2023-10-08T05:56:09;16.50;99.90
14555;DHT22;7364;50.870;4.722;2023-10-08T05:58:54;16.50;99.90
14555;DHT22;7364;50.870;4.722;2023-10-08T06:01:41;16.50;99.90
14555;DHT22;7364;50.870;4.722;2023-10-08T06:04:12;16.50;99.90
14555;DHT22;7364;50.870;4.722;2023-10-08T06:07:19;16.60;99.90
14555;DHT22;7364;50.870;4.722;2023-10-08T06:10:00;16.60;99.90
14555;DHT22;7364;50.870;4.722;2023-10-08T06:12:28;16.70;99.90
14555;DHT22;7364;50.870;4.722;2023-10-08T06:15:06;16.70;99.90
14555;DHT22;7364;50.870;4.722;2023-10-08T06:17:34;16.70;99.90
14555;DHT22;7364;50.870;4.722;2023-10-08T06:20:22;16.80;99.90
14555;DHT22;7364;50.870;4.722;2023-10-08T06:22:53;16.80;99.90
14555;DHT22;7364;50.870;4.722;2023-10-08T06:25:28;16.80;99.90
14555;DHT22;7364;50.870;4.722;2023-10-08T06:27:56;16.90;99.90
14555;DHT22;7364;50.870;4.722;2023-10-08T06:30:24;16.80;99.90
14555;DHT22;7364;50.870;4.722;2023-10-08T06:32:56;16.90;99.90
14555;DHT22;7364;50.870;4.722;2023-10-08T06:35:23;16.90;99.90
14555;DHT22;7364;50.870;4.722;2023-10-08T06:37:54;16.90;99.90
14555;DHT22;7364;50.870;4.722;2023-10-08T06:40:25;17.00;99.90
14555;DHT22;7364;50.870;4.722;2023-10-08T06:43:09;16.90;99.90
14555;DHT22;7364;50.870;4.722;2023-10-08T06:45:48;16.90;99.90
14555;DHT22;7364;50.870;4.722;2023-10-08T06:48:18;16.90;99.90
14555;DHT22;7364;50.870;4.722;2023-10-08T06:50:48;16.90;99.90
14555;DHT22;7364;50.870;4.722;2023-10-08T06:53:22;16.90;99.90
14555;DHT22;7364;50.870;4.722;2023-10-08T06:55:50;17.00;99.90
14555;DHT22;7364;50.870;4.722;2023-10-08T06:58:24;17.00;99.90
14555;DHT22;7364;50.870;4.722;2023-10-08T07:00:52;17.10;99.90
14555;DHT22;7364;50.870;4.722;2023-10-08T07:03:21;17.00;99.90
14555;DHT22;7364;50.870;4.722;2023-10-08T07:05:49;17.10;99.90
14555;DHT22;7364;50.870;4.722;2023-10-08T07:08:26;17.10;99.90
14555;DHT22;7364;50.870;4.722;2023-10-08T07:10:55;17.30;99.90
14555;DHT22;7364;50.870;4.722;2023-10-08T07:13:26;17.40;99.90
14555;DHT22;7364;50.870;4.722;2023-10-08T07:15:55;17.40;99.90
14555;DHT22;7364;50.870;4.722;2023-10-08T07:18:23;17.40;99.90
14555;DHT22;7364;50.870;4.722;2023-10-08T07:20:52;17.40;99.90
14555;DHT22;7364;50.870;4.722;2023-10-08T07:23:27;17.50;99.90
14555;DHT22;7364;50.870;4.722;2023-10-08T07:25:57;17.60;99.90
14555;DHT22;7364;50.870;4.722;2023-10-08T07:28:38;17.70;99.90
14555;DHT22;7364;50.870;4.722;2023-10-08T07:31:12;17.80;99.90
14555;DHT22;7364;50.870;4.722;2023-10-08T07:33:41;17.90;99.90
14555;DHT22;7364;50.870;4.722;2023-10-08T07:36:10;18.00;99.90
14555;DHT22;7364;50.870;4.722;2023-10-08T07:38:40;18.00;99.90
14555;DHT22;7364;50.870;4.722;2023-10-08T07:41:08;18.00;99.90
14555;DHT22;7364;50.870;4.722;2023-10-08T07:43:40;18.10;99.90
14555;DHT22;7364;50.870;4.722;2023-10-08T07:46:07;18.20;99.90
14555;DHT22;7364;50.870;4.722;2023-10-08T07:48:36;18.30;99.90
14555;DHT22;7364;50.870;4.722;2023-10-08T07:51:08;18.40;99.90
14555;DHT22;7364;50.870;4.722;2023-10-08T07:53:35;18.50;99.90
14555;DHT22;7364;50.870;4.722;2023-10-08T07:56:05;18.20;99.90
14555;DHT22;7364;50.870;4.722;2023-10-08T07:58:34;18.20;99.90
14555;DHT22;7364;50.870;4.722;2023-10-08T08:01:05;18.60;99.90
14555;DHT22;7364;50.870;4.722;2023-10-08T08:03:33;18.70;99.90
14555;DHT22;7364;50.870;4.722;2023-10-08T08:06:03;18.80;99.90
14555;DHT22;7364;50.870;4.722;2023-10-08T08:08:32;18.90;99.90
14555;DHT22;7364;50.870;4.722;2023-10-08T08:11:00;19.00;99.90
14555;DHT22;7364;50.870;4.722;2023-10-08T08:13:33;19.10;99.90
14555;DHT22;7364;50.870;4.722;2023-10-08T08:16:01;19.00;99.90
14555;DHT22;7364;50.870;4.722;2023-10-08T08:18:43;18.90;99.90
14555;DHT22;7364;50.870;4.722;2023-10-08T08:21:11;19.00;99.90
14555;DHT22;7364;50.870;4.722;2023-10-08T08:23:41;19.10;99.90
14555;DHT22;7364;50.870;4.722;2023-10-08T08:26:14;19.30;99.90
14555;DHT22;7364;50.870;4.722;2023-10-08T08:28:54;19.30;99.90
14555;DHT22;7364;50.870;4.722;2023-10-08T08:31:22;19.40;99.90
14555;DHT22;7364;50.870;4.722;2023-10-08T08:33:52;19.20;99.90
14555;DHT22;7364;50.870;4.722;2023-10-08T08:36:23;19.20;99.90
14555;DHT22;7364;50.870;4.722;2023-10-08T08:38:51;19.40;99.90
14555;DHT22;7364;50.870;4.722;2023-10-08T08:41:18;19.60;99.90
14555;DHT22;7364;50.870;4.722;2023-10-08T08:43:50;19.70;99.90
14555;DHT22;7364;50.870;4.722;2023-10-08T08:46:30;19.60;99.90
14555;DHT22;7364;50.870;4.722;2023-10-08T08:49:01;19.90;99.90
14555;DHT22;7364;50.870;4.722;2023-10-08T08:51:30;20.00;99.90
14555;DHT22;7364;50.870;4.722;2023-10-08T08:53:57;20.30;99.90
14555;DHT22;7364;50.870;4.722;2023-10-08T08:56:26;20.50;99.90
14555;DHT22;7364;50.870;4.722;2023-10-08T08:58:58;20.40;99.90
14555;DHT22;7364;50.870;4.722;2023-10-08T09:01:27;20.40;99.90
14555;DHT22;7364;50.870;4.722;2023-10-08T09:04:01;20.50;99.90
14555;DHT22;7364;50.870;4.722;2023-10-08T09:06:31;20.50;99.90
14555;DHT22;7364;50.870;4.722;2023-10-08T09:08:59;20.80;99.90
14555;DHT22;7364;50.870;4.722;2023-10-08T09:11:40;20.90;99.90
14555;DHT22;7364;50.870;4.722;2023-10-08T09:14:09;21.20;99.90
14555;DHT22;7364;50.870;4.722;2023-10-08T09:16:37;20.90;99.90
14555;DHT22;7364;50.870;4.722;2023-10-08T09:19:06;20.40;99.90
14555;DHT22;7364;50.870;4.722;2023-10-08T09:21:37;20.20;99.90
14555;DHT22;7364;50.870;4.722;2023-10-08T09:24:06;20.00;99.90
14555;DHT22;7364;50.870;4.722;2023-10-08T09:26:36;20.40;99.90
14555;DHT22;7364;50.870;4.722;2023-10-08T09:29:05;20.70;99.90
14555;DHT22;7364;50.870;4.722;2023-10-08T09:31:37;20.50;99.90
14555;DHT22;7364;50.870;4.722;2023-10-08T09:34:06;20.30;99.90
14555;DHT22;7364;50.870;4.722;2023-10-08T09:36:33;20.40;99.90
14555;DHT22;7364;50.870;4.722;2023-10-08T09:39:01;20.20;99.90
14555;DHT22;7364;50.870;4.722;2023-10-08T09:41:31;20.00;99.90
14555;DHT22;7364;50.870;4.722;2023-10-08T09:43:59;20.30;99.90
14555;DHT22;7364;50.870;4.722;2023-10-08T09:46:31;20.90;99.90
14555;DHT22;7364;50.870;4.722;2023-10-08T09:49:01;21.40;99.90
14555;DHT22;7364;50.870;4.722;2023-10-08T09:51:37;21.30;99.90
14555;DHT22;7364;50.870;4.722;2023-10-08T09:54:10;21.80;99.90
14555;DHT22;7364;50.870;4.722;2023-10-08T09:56:40;22.70;99.90
14555;DHT22;7364;50.870;4.722;2023-10-08T09:59:09;22.90;99.90
14555;DHT22;7364;50.870;4.722;2023-10-08T10:01:38;22.80;99.90
14555;DHT22;7364;50.870;4.722;2023-10-08T10:04:08;23.10;99.90
14555;DHT22;7364;50.870;4.722;2023-10-08T10:06:37;23.50;99.90
14555;DHT22;7364;50.870;4.722;2023-10-08T10:09:05;24.00;99.90
14555;DHT22;7364;50.870;4.722;2023-10-08T10:11:47;24.70;99.90
14555;DHT22;7364;50.870;4.722;2023-10-08T10:14:15;25.60;99.00
14555;DHT22;7364;50.870;4.722;2023-10-08T10:16:43;25.50;98.40
14555;DHT22;7364;50.870;4.722;2023-10-08T10:19:17;25.70;98.20
14555;DHT22;7364;50.870;4.722;2023-10-08T10:21:47;26.50;97.40
14555;DHT22;7364;50.870;4.722;2023-10-08T10:24:23;26.10;97.10
14555;DHT22;7364;50.870;4.722;2023-10-08T10:27:09;26.70;96.30
14555;DHT22;7364;50.870;4.722;2023-10-08T10:29:37;26.20;95.90
14555;DHT22;7364;50.870;4.722;2023-10-08T10:32:05;26.60;95.80
14555;DHT22;7364;50.870;4.722;2023-10-08T10:34:32;26.90;95.30
14555;DHT22;7364;50.870;4.722;2023-10-08T10:37:06;26.90;95.40
14555;DHT22;7364;50.870;4.722;2023-10-08T10:39:50;27.00;95.40
14555;DHT22;7364;50.870;4.722;2023-10-08T10:42:19;27.40;94.90
14555;DHT22;7364;50.870;4.722;2023-10-08T10:44:48;27.70;94.00
14555;DHT22;7364;50.870;4.722;2023-10-08T10:47:19;28.00;93.90
14555;DHT22;7364;50.870;4.722;2023-10-08T10:49:52;27.60;94.10
14555;DHT22;7364;50.870;4.722;2023-10-08T10:52:22;27.70;94.10
14555;DHT22;7364;50.870;4.722;2023-10-08T10:55:03;28.20;93.40
14555;DHT22;7364;50.870;4.722;2023-10-08T10:57:47;28.00;92.60
14555;DHT22;7364;50.870;4.722;2023-10-08T11:00:23;27.70;93.20
14555;DHT22;7364;50.870;4.722;2023-10-08T11:03:07;27.30;93.30
14555;DHT22;7364;50.870;4.722;2023-10-08T11:05:43;27.60;92.80
14555;DHT22;7364;50.870;4.722;2023-10-08T11:08:18;27.90;93.00
14555;DHT22;7364;50.870;4.722;2023-10-08T11:10:49;28.60;92.10
14555;DHT22;7364;50.870;4.722;2023-10-08T11:13:21;29.00;91.50
14555;DHT22;7364;50.870;4.722;2023-10-08T11:15:54;29.20;91.30
14555;DHT22;7364;50.870;4.722;2023-10-08T11:18:25;29.90;90.00
14555;DHT22;7364;50.870;4.722;2023-10-08T11:21:05;29.40;89.80
14555;DHT22;7364;50.870;4.722;2023-10-08T11:23:44;29.40;90.90
14555;DHT22;7364;50.870;4.722;2023-10-08T11:26:18;29.70;89.80
14555;DHT22;7364;50.870;4.722;2023-10-08T11:28:47;30.10;89.10
14555;DHT22;7364;50.870;4.722;2023-10-08T11:31:15;30.70;87.60
14555;DHT22;7364;50.870;4.722;2023-10-08T11:33:46;30.30;87.60
14555;DHT22;7364;50.870;4.722;2023-10-08T11:36:20;29.60;89.30
14555;DHT22;7364;50.870;4.722;2023-10-08T11:38:55;29.40;89.40
14555;DHT22;7364;50.870;4.722;2023-10-08T11:41:29;28.70;90.00
14555;DHT22;7364;50.870;4.722;2023-10-08T11:44:00;28.40;90.60
14555;DHT22;7364;50.870;4.722;2023-10-08T11:46:30;28.20;90.50
14555;DHT22;7364;50.870;4.722;2023-10-08T11:49:04;27.80;91.20
14555;DHT22;7364;50.870;4.722;2023-10-08T11:51:32;28.20;91.50
14555;DHT22;7364;50.870;4.722;2023-10-08T11:54:02;29.30;89.90
14555;DHT22;7364;50.870;4.722;2023-10-08T11:56:32;30.70;87.20
14555;DHT22;7364;50.870;4.722;2023-10-08T11:59:02;31.50;84.80
14555;DHT22;7364;50.870;4.722;2023-10-08T12:01:34;31.80;83.40
14555;DHT22;7364;50.870;4.722;2023-10-08T12:04:03;32.60;81.40
14555;DHT22;7364;50.870;4.722;2023-10-08T12:06:31;33.00;80.50
14555;DHT22;7364;50.870;4.722;2023-10-08T12:09:00;33.60;78.20
14555;DHT22;7364;50.870;4.722;2023-10-08T12:11:37;33.90;76.80
14555;DHT22;7364;50.870;4.722;2023-10-08T12:14:05;33.30;76.60
14555;DHT22;7364;50.870;4.722;2023-10-08T12:16:33;33.00;78.10
14555;DHT22;7364;50.870;4.722;2023-10-08T12:19:02;32.70;79.10
14555;DHT22;7364;50.870;4.722;2023-10-08T12:21:42;32.80;78.50
14555;DHT22;7364;50.870;4.722;2023-10-08T12:24:14;32.60;78.00
14555;DHT22;7364;50.870;4.722;2023-10-08T12:26:42;32.40;77.60
14555;DHT22;7364;50.870;4.722;2023-10-08T12:29:11;32.70;78.70
14555;DHT22;7364;50.870;4.722;2023-10-08T12:31:40;32.50;78.50
14555;DHT22;7364;50.870;4.722;2023-10-08T12:34:07;32.90;76.80
14555;DHT22;7364;50.870;4.722;2023-10-08T12:36:37;32.90;76.60
14555;DHT22;7364;50.870;4.722;2023-10-08T12:39:05;32.50;77.60
14555;DHT22;7364;50.870;4.722;2023-10-08T12:41:41;31.20;77.70
14555;DHT22;7364;50.870;4.722;2023-10-08T12:44:10;30.40;80.10
14555;DHT22;7364;50.870;4.722;2023-10-08T12:46:37;30.40;80.90
14555;DHT22;7364;50.870;4.722;2023-10-08T12:49:05;31.10;80.50
14555;DHT22;7364;50.870;4.722;2023-10-08T12:51:32;31.50;79.70
14555;DHT22;7364;50.870;4.722;2023-10-08T12:54:01;32.30;77.80
14555;DHT22;7364;50.870;4.722;2023-10-08T12:56:32;33.40;75.20
14555;DHT22;7364;50.870;4.722;2023-10-08T12:59:05;33.70;74.20
14555;DHT22;7364;50.870;4.722;2023-10-08T13:01:33;34.10;73.20
14555;DHT22;7364;50.870;4.722;2023-10-08T13:04:02;34.60;70.90
14555;DHT22;7364;50.870;4.722;2023-10-08T13:06:34;33.70;71.50
14555;DHT22;7364;50.870;4.722;2023-10-08T13:09:03;33.20;73.80
14555;DHT22;7364;50.870;4.722;2023-10-08T13:11:38;33.70;72.60
14555;DHT22;7364;50.870;4.722;2023-10-08T13:14:09;34.00;71.90
14555;DHT22;7364;50.870;4.722;2023-10-08T13:16:37;33.90;71.10
14555;DHT22;7364;50.870;4.722;2023-10-08T13:19:05;34.10;70.90
14555;DHT22;7364;50.870;4.722;2023-10-08T13:21:34;34.00;71.80
14555;DHT22;7364;50.870;4.722;2023-10-08T13:24:03;33.90;72.30
14555;DHT22;7364;50.870;4.722;2023-10-08T13:26:35;33.80;72.10
14555;DHT22;7364;50.870;4.722;2023-10-08T13:29:03;33.50;72.60
14555;DHT22;7364;50.870;4.722;2023-10-08T13:31:33;33.70;72.10
14555;DHT22;7364;50.870;4.722;2023-10-08T13:34:02;33.50;72.60
14555;DHT22;7364;50.870;4.722;2023-10-08T13:36:34;33.00;73.50
14555;DHT22;7364;50.870;4.722;2023-10-08T13:39:04;33.50;72.80
14555;DHT22;7364;50.870;4.722;2023-10-08T13:41:36;33.80;71.00
14555;DHT22;7364;50.870;4.722;2023-10-08T13:44:04;34.40;70.30
14555;DHT22;7364;50.870;4.722;2023-10-08T13:46:34;35.00;69.20
14555;DHT22;7364;50.870;4.722;2023-10-08T13:49:04;35.40;68.80
14555;DHT22;7364;50.870;4.722;2023-10-08T13:51:34;36.10;67.60
14555;DHT22;7364;50.870;4.722;2023-10-08T13:54:02;36.80;64.70
14555;DHT22;7364;50.870;4.722;2023-10-08T13:56:33;36.50;64.30
14555;DHT22;7364;50.870;4.722;2023-10-08T13:59:04;36.80;63.30
14555;DHT22;7364;50.870;4.722;2023-10-08T14:01:40;36.70;63.90
14555;DHT22;7364;50.870;4.722;2023-10-08T14:04:09;36.50;63.00
14555;DHT22;7364;50.870;4.722;2023-10-08T14:06:37;37.00;61.80
14555;DHT22;7364;50.870;4.722;2023-10-08T14:09:06;37.60;60.20
14555;DHT22;7364;50.870;4.722;2023-10-08T14:11:38;37.80;60.30
14555;DHT22;7364;50.870;4.722;2023-10-08T14:14:05;38.10;58.80
14555;DHT22;7364;50.870;4.722;2023-10-08T14:16:38;37.20;59.60
14555;DHT22;7364;50.870;4.722;2023-10-08T14:19:07;37.00;60.00
14555;DHT22;7364;50.870;4.722;2023-10-08T14:21:38;35.80;61.50
14555;DHT22;7364;50.870;4.722;2023-10-08T14:24:15;35.10;62.90
14555;DHT22;7364;50.870;4.722;2023-10-08T14:26:42;35.00;62.30
14555;DHT22;7364;50.870;4.722;2023-10-08T14:29:09;34.50;64.50
14555;DHT22;7364;50.870;4.722;2023-10-08T14:31:42;34.10;65.40
14555;DHT22;7364;50.870;4.722;2023-10-08T14:34:14;33.90;65.50
14555;DHT22;7364;50.870;4.722;2023-10-08T14:37:07;33.50;65.10
14555;DHT22;7364;50.870;4.722;2023-10-08T14:39:52;32.10;65.30
14555;DHT22;7364;50.870;4.722;2023-10-08T14:42:36;31.60;67.10
14555;DHT22;7364;50.870;4.722;2023-10-08T14:45:22;31.50;67.50
14555;DHT22;7364;50.870;4.722;2023-10-08T14:47:54;30.80;68.60
14555;DHT22;7364;50.870;4.722;2023-10-08T14:50:22;30.10;70.60
14555;DHT22;7364;50.870;4.722;2023-10-08T14:52:49;29.90;71.80
14555;DHT22;7364;50.870;4.722;2023-10-08T14:55:16;30.00;72.50
14555;DHT22;7364;50.870;4.722;2023-10-08T14:57:47;29.90;73.10
14555;DHT22;7364;50.870;4.722;2023-10-08T15:00:17;29.90;73.10
14555;DHT22;7364;50.870;4.722;2023-10-08T15:02:51;29.60;74.10
14555;DHT22;7364;50.870;4.722;2023-10-08T15:05:21;29.20;74.20
14555;DHT22;7364;50.870;4.722;2023-10-08T15:07:48;29.00;75.80
14555;DHT22;7364;50.870;4.722;2023-10-08T15:10:17;28.90;76.10
14555;DHT22;7364;50.870;4.722;2023-10-08T15:12:44;29.10;76.40
14555;DHT22;7364;50.870;4.722;2023-10-08T15:15:11;29.30;76.50
14555;DHT22;7364;50.870;4.722;2023-10-08T15:17:41;29.20;76.60
14555;DHT22;7364;50.870;4.722;2023-10-08T15:20:14;29.20;77.50
14555;DHT22;7364;50.870;4.722;2023-10-08T15:22:44;28.90;78.20
14555;DHT22;7364;50.870;4.722;2023-10-08T15:25:12;28.50;78.20
14555;DHT22;7364;50.870;4.722;2023-10-08T15:27:40;28.30;77.30
14555;DHT22;7364;50.870;4.722;2023-10-08T15:30:11;28.10;78.40
14555;DHT22;7364;50.870;4.722;2023-10-08T15:32:38;28.20;78.30
14555;DHT22;7364;50.870;4.722;2023-10-08T15:35:07;28.00;78.80
14555;DHT22;7364;50.870;4.722;2023-10-08T15:37:35;27.50;78.80
14555;DHT22;7364;50.870;4.722;2023-10-08T15:40:05;27.00;80.20
14555;DHT22;7364;50.870;4.722;2023-10-08T15:42:33;26.50;81.00
14555;DHT22;7364;50.870;4.722;2023-10-08T15:45:03;26.50;82.40
14555;DHT22;7364;50.870;4.722;2023-10-08T15:47:30;26.50;82.60
14555;DHT22;7364;50.870;4.722;2023-10-08T15:49:58;26.50;83.20
14555;DHT22;7364;50.870;4.722;2023-10-08T15:52:25;26.60;83.40
14555;DHT22;7364;50.870;4.722;2023-10-08T15:54:53;26.70;83.50
14555;DHT22;7364;50.870;4.722;2023-10-08T15:57:21;26.70;83.70
14555;DHT22;7364;50.870;4.722;2023-10-08T15:59:48;26.50;84.50
14555;DHT22;7364;50.870;4.722;2023-10-08T16:02:16;26.30;85.20
14555;DHT22;7364;50.870;4.722;2023-10-08T16:04:44;26.30;86.00
14555;DHT22;7364;50.870;4.722;2023-10-08T16:07:11;26.00;86.30
14555;DHT22;7364;50.870;4.722;2023-10-08T16:09:39;26.00;87.10
14555;DHT22;7364;50.870;4.722;2023-10-08T16:12:07;26.00;87.50
14555;DHT22;7364;50.870;4.722;2023-10-08T16:14:36;26.00;87.80